Skip Navigation Links
NOAA logo - Click to go to the NOAA homepage
NOAA's National Weather Service
Alaska Aviation Weather Unit
  NWS logo - Click to go to the NWS homepage
Left Navbar Graphic     15 AKDT = 23 GMT

   
NOAA is celebrating 200 years of science, service, and stewardship. Visit the NOAA 200th celebration Web site to learn more.
USA.gov is the U.S. Government's official Web portal to all Federal, state and local government Web resources and services.
Facebook
NWS on Facebook

Important Change Regarding the AAWU Web Presence

 

Over the last several months, the AAWU has been working to navigate its webpages to a nationally supported server. Security, as well as other needs, have necessitated the change.  We have been given an extension for the site changeover while we diligently work at addressing feedback received. As of July 14, 2017, aawu.arh.noaa.gov will be discontinued. The new AAWU web address is weather.gov/aawu. It is now live and will run in-parallel with the old site until it is discontinued on July 14, 2017. Please continue to send any feedback or questions regarding the new webpages to nws.ar.aawu.webauthors@noaa.gov.  Thank you for your patience during this time of transition.
AAWU Home :: Display TAF Add Bookmark
TAF PAKT 192327Z 2000/2024  15006KT 5SM -SHRA BR SCT015 OVC025
      TEMPO 2000/2004 3SM RA BR BKN015 OVC025
     FM201200 18005KT P6SM -SHRA BKN025 OVC040
     FM202100 13010KT P6SM -SHRA SCT025 OVC040
      AMD LTD TO CLD VIS AND WIND 2006/2015=

7904
FTAK31 PAJN 192327
TAFAJN
TAF
METAR PAKT 191753Z 00000KT 10SM SCT014 BKN025 OVC034 06/04 A2896=

PAKT 191808Z 00000KT 10SM FEW026 OVC033 07/04 A2897=

SPECI PAKT 191808Z 00000KT 10SM FEW026 OVC033 07/04 A2897 RMK AO2
     T00670044=

PAKT 191817Z 00000KT 10SM SCT014 BKN025 OVC034 07/05 A2897=

SPECI PAKT 191817Z 00000KT 10SM SCT014 BKN025 OVC034 07/05 A2897 RMK AO2
     T00670050=

METAR PAKT 191853Z 12003KT 10SM SCT019 BKN028 OVC033 07/06 A2899=

METAR PAKT 191953Z 14006KT 10SM SCT012 BKN022 OVC033 07/06 A2901=

METAR PAKT 192053Z 17004KT 5SM -RA BR SCT006 BKN018 OVC030 07/06
     A2902=

METAR PAKT 192153Z 00000KT 3SM RA BR FEW011 OVC022 07/06 A2903=

METAR PAKT 192253Z 00000KT 7SM -RA SCT011 BKN017 OVC022 07/06 A2904=


NOAA's National Weather Service
Alaska Aviation Weather Unit
6930 Sand Lake Road
Anchorage, AK 99502-1845
Disclaimer
Credits
Glossary
Privacy Policy
About Us
Career Opportunities
Contact AAWU Internet Services Site last modified: April, 17th 2012